ADDS METAR Data INFO
IDs: Format: Raw Decoded Include TAF

Data at: 2012 UTC 18 Jul 2018

KBOK 181956Z AUTO 15004KT 10SM CLR 19/13 A3005 RMK AO2 SLP189 T01940133
KBOK 181856Z AUTO VRB03KT 10SM CLR 19/13 A3006 RMK AO2 SLP192 T01890133
KBOK 181756Z AUTO 19004KT 10SM CLR 18/13 A3006 RMK AO2 SLP191 60000 T01830133 10189 20100 58006
KBOK 181656Z AUTO 21003KT 10SM CLR 18/13 A3007 RMK AO2 SLP194 T01780128
KBOK 181556Z AUTO 00000KT 10SM CLR 16/12 A3007 RMK AO2 SLP197 T01610122
KBOK 181456Z AUTO 00000KT 10SM CLR 13/11 A3008 RMK AO2 SLP198 60000 T01280111 52002
KBOK 181356Z AUTO 00000KT 10SM FEW003 10/09 A3008 RMK AO2 SLP198 T01000094
KBOK 181308Z AUTO 00000KT 10SM BKN003 10/09 A3007 RMK AO2
KBOK 181256Z AUTO 00000KT 10SM SCT003 10/09 A3007 RMK AO2 RAE06 SLP197 P0000 T01000094
KBOK 181232Z AUTO 00000KT 10SM FEW001 11/10 A3007 RMK AO2 RAE06 P0000
KBOK 181203Z AUTO 00000KT 4SM -RA BR OVC003 11/11 A3007 RMK AO2 P0000
KBOK 181156Z AUTO 00000KT 1 1/4SM -RA BR OVC003 12/11 A3007 RMK AO2 VIS 3/4V4 SLP196 P0000 60000 T01170111 10133 20117 58004
KBOK 181144Z AUTO 00000KT 1 1/4SM -RA BR OVC003 12/11 A3007 RMK AO2 P0000
KBOK 181131Z AUTO 07003KT 3/4SM -RA BR OVC003 12/12 A3007 RMK AO2 P0000
KBOK 181056Z AUTO 00000KT 1/2SM -RA FG OVC003 12/12 A3008 RMK AO2 SLP198 P0000 T01170117
KBOK 181036Z AUTO 00000KT 1/2SM -RA FG OVC003 12/12 A3007 RMK AO2 P0000
KBOK 181027Z AUTO 00000KT 1SM -RA BR OVC003 12/12 A3008 RMK AO2 P0000
KBOK 181006Z AUTO 00000KT 1/2SM -RA FG OVC003 12/12 A3008 RMK AO2 P0000
KBOK 180956Z AUTO 00000KT 1SM -RA BR OVC003 12/12 A3008 RMK AO2 SLP200 P0000 T01220122
KBOK 180939Z AUTO 00000KT 3/4SM -RA BR OVC003 12/12 A3008 RMK AO2 VIS 1/2V1 3/4 P0000
KBOK 180917Z AUTO 00000KT 1SM -RA BR OVC003 12/12 A3008 RMK AO2 P0000
KBOK 180910Z AUTO 00000KT 2SM -RA BR OVC003 12/12 A3008 RMK AO2 P0000
KBOK 180905Z AUTO 00000KT 1SM -RA BR OVC003 12/12 A3008 RMK AO2 P0000
KBOK 180856Z AUTO 00000KT 1/2SM -RA FG OVC003 12/12 A3008 RMK AO2 RAB36 SLP201 P0000 60000 T01220122 51005
KBOK 180850Z AUTO 00000KT 3/4SM -RA BR OVC003 13/12 A3008 RMK AO2 RAB36 P0000
KBOK 180837Z AUTO 00000KT 1/2SM -RA FG OVC003 13/12 A3009 RMK AO2 RAB36 P0000
KBOK 180821Z AUTO 00000KT 3/4SM BR OVC003 13/12 A3009 RMK AO2 VIS 1/2V2
KBOK 180813Z AUTO 00000KT 1 1/4SM BR OVC003 13/12 A3008 RMK AO2 VIS 3/4V3
KBOK 180756Z AUTO 00000KT 3/4SM BR OVC003 13/12 A3008 RMK AO2 RAB10E29 SLP200 P0000 T01280122 401890117
KBOK 180727Z AUTO 00000KT 1SM -RA BR OVC003 13/12 A3007 RMK AO2 RAB10 P0000
KBOK 180723Z AUTO 00000KT 1/2SM -RA FG OVC003 13/12 A3007 RMK AO2 RAB10 P0000
KBOK 180656Z AUTO 00000KT 3/4SM BR OVC003 13/12 A3007 RMK AO2 SLP197 T01280122
KBOK 180652Z AUTO 00000KT 3/4SM BR OVC003 13/12 A3007 RMK AO2
KBOK 180637Z AUTO 14003KT 1 3/4SM BR OVC003 13/12 A3007 RMK AO2 VIS 3/4V4
KBOK 180556Z AUTO 12003KT 5SM BR OVC003 13/12 A3007 RMK AO2 SLP196 T01330122 10189 20133 51013
KBOK 180554Z AUTO 12003KT 6SM BR OVC003 13/12 A3006 RMK AO2
KBOK 180542Z AUTO VRB03KT 6SM BR BKN005 13/12 A3006 RMK AO2
KBOK 180521Z AUTO 12003KT 8SM FEW005 13/12 A3005 RMK AO2
KBOK 180456Z AUTO 13003KT 8SM CLR 14/12 A3005 RMK AO2 SLP189 T01390122
KBOK 180356Z AUTO 13004KT 10SM CLR 15/13 A3003 RMK AO2 SLP182 T01500128
KBOK 180256Z AUTO 15007KT 10SM CLR 17/13 A3003 RMK AO2 SLP181 T01720128 55006
KBOK 180156Z AUTO 15005KT 10SM CLR 18/13 A3002 RMK AO2 SLP179 T01830133
KBOK 180056Z AUTO 15007KT 10SM CLR 18/13 A3003 RMK AO2 SLP182 T01830133
KBOK 172356Z AUTO 17007KT 10SM CLR 18/13 A3005 RMK AO2 SLP187 T01830133 10183 20128 58011
KBOK 172256Z AUTO 13005KT 10SM CLR 18/13 A3006 RMK AO2 SLP192 T01780133
KBOK 172156Z AUTO 15008KT 10SM CLR 17/13 A3007 RMK AO2 SLP196 T01670128
KBOK 172108Z AUTO VRB03KT 10SM FEW007 17/13 A3008 RMK AO2
KBOK 172056Z AUTO 14005KT 10SM BKN007 16/12 A3008 RMK AO2 SLP199 T01560122 51001
KBOK 172026Z AUTO 15006KT 10SM OVC005 14/12 A3008 RMK AO2
KBOK 171956Z AUTO VRB03KT 8SM OVC003 14/13 A3008 RMK AO2 SLP199 T01440128
KBOK 171926Z AUTO 25004KT 3SM BR OVC003 14/12 A3008 RMK AO2
KBOK 171916Z AUTO 30004KT 1 1/2SM BR OVC003 13/12 A3008 RMK AO2 VIS 1V5
KBOK 171855Z AUTO VRB03KT 2SM BR OVC003 13/12 A3008 RMK AO2 VIS 1V5
KBOK 171848Z AUTO 00000KT 1SM BR OVC003 13/12 A3008 RMK AO2 VIS 1/2V5 SLP201 T01330122
KBOK 171847Z AUTO 00000KT 1SM BR OVC003 13/12 A3008 RMK AO2 VIS 1/2V5
KBOK 171822Z AUTO 29006KT 1/2SM FG OVC003 13/12 A3008 RMK AO2 VIS 1/4V4
KBOK 171808Z AUTO 26004KT 1SM BR OVC003 13/12 A3008 RMK AO2 VIS 1/2V3
KBOK 171756Z AUTO 30003KT 1/2SM FG OVC003 13/12 A3008 RMK AO2 VIS 1/4V1 1/4 SLP199 60000 T01280122 10133 20117 51003
KBOK 171735Z AUTO 23003KT 1/4SM FG OVC003 13/12 A3008 RMK AO2 VIS M1/4V3
KBOK 171720Z AUTO 22003KT 3/4SM BR OVC003 13/13 A3007 RMK AO2
KBOK 171656Z AUTO 28003KT 1/4SM FG OVC003 13/12 A3008 RMK AO2 RAB20E41 SLP199 P0000 T01280122
KBOK 171640Z AUTO VRB03KT 3/4SM -RA BR OVC003 12/12 A3008 RMK AO2 RAB20 P0000
KBOK 171606Z AUTO 28003KT 1/4SM FG OVC003 12/12 A3008 RMK AO2 VIS 1/4V4
KBOK 171601Z AUTO 00000KT 3/4SM BR OVC003 12/12 A3008 RMK AO2 VIS 1/4V5
KBOK 171556Z AUTO 00000KT 1 1/2SM BR OVC003 12/12 A3008 RMK AO2 VIS 1/2V5 RAE52 SLP199 P0000 T01220117
KBOK 171536Z AUTO 29004KT 1 1/4SM -RA BR OVC003 12/12 A3007 RMK AO2 VIS 1/2V4 P0000
KBOK 171531Z AUTO 32005KT 3/4SM -RA BR OVC003 12/12 A3007 RMK AO2 VIS 1/2V4 P0000
KBOK 171456Z AUTO 00000KT 1/4SM -RA FG OVC003 12/12 A3007 RMK AO2 SLP195 P0000 60000 T01170117 53005
KBOK 171356Z AUTO 28003KT M1/4SM -RA FG OVC003 12/12 A3005 RMK AO2 SLP189 P0000 T01170117
KBOK 171256Z AUTO 00000KT 1/4SM -RA FG OVC003 12/12 A3005 RMK AO2 SLP187 P0000 T01170117
KBOK 171156Z AUTO 00000KT 1/2SM -RA FG OVC003 12/12 A3005 RMK AO2 SLP189 P0000 60000 T01220122 10133 20122 51002
KBOK 171056Z AUTO 00000KT 1/4SM -RA FG BKN003 OVC009 12/12 A3005 RMK AO2 CIG 002V007 SLP188 P0000 T01220122
KBOK 171051Z AUTO 00000KT 1/4SM -RA FG BKN003 OVC009 12/12 A3005 RMK AO2 P0000
KBOK 171035Z AUTO 00000KT 1/4SM -RA FG BKN004 BKN008 OVC015 12/12 A3005 RMK AO2 CIG 003V007 P0000
KBOK 171012Z AUTO 28003KT 1/4SM -RA FG FEW004 BKN011 OVC015 12/12 A3005 RMK AO2 CIG 008V013 P0000
KBOK 170956Z AUTO 00000KT 1/4SM -RA FG BKN004 OVC013 12/12 A3005 RMK AO2 RAB01 CIG 002V008 SLP188 P0000 T01220122
KBOK 170856Z AUTO 00000KT 1/4SM FG BKN002 BKN007 OVC012 13/12 A3004 RMK AO2 SLP186 T01280122 58002
KBOK 170821Z AUTO VRB03KT 1/4SM FG OVC002 13/12 A3004 RMK AO2